Time;durP1;ratioP1;P1;durP2;ratioP2;P2;SDS_P1;SDS_P2;PMS_P1;PMS_P2;Temp;Humidity;BMP_temperature;BMP_pressure;BME280_temperature;BME280_humidity;BME280_pressure;Samples;Min_cycle;Max_cycle;Signal;HPM_P1;HPM_P2
2021/10/10 00:06:20;;;;;;;19.20;10.88;;;;;;;7.01;84.05;101486.88;20735402;28;20407;-78
2021/10/10 00:16:22;;;;;;;22.15;12.65;;;;;;;6.93;84.40;101484.13;20745517;28;20108;-79
2021/10/10 00:26:23;;;;;;;19.50;11.05;;;;;;;6.68;86.20;101488.91;20731464;28;20092;-78
2021/10/10 00:36:25;;;;;;;26.23;12.07;;;;;;;6.50;85.83;101488.56;20730000;28;20542;-79
2021/10/10 00:46:26;;;;;;;23.35;11.13;;;;;;;6.67;84.55;101488.91;20746960;28;20058;-78
2021/10/10 00:56:28;;;;;;;18.55;10.70;;;;;;;6.75;83.55;101489.88;20732990;28;20042;-78
2021/10/10 01:06:30;;;;;;;19.80;11.10;;;;;;;6.65;83.30;101483.66;20748109;28;20054;-78
2021/10/10 01:16:32;;;;;;;19.98;11.48;;;;;;;6.50;84.01;101482.50;20742729;28;20491;-78
2021/10/10 01:26:34;;;;;;;27.00;11.02;;;;;;;6.39;84.01;101482.31;20740924;28;20057;-78
2021/10/10 01:36:36;;;;;;;21.98;11.35;;;;;;;6.35;84.47;101478.78;20733476;28;20077;-78
2021/10/10 01:46:37;;;;;;;22.58;12.43;;;;;;;6.23;84.55;101488.97;20724080;28;20124;-78
2021/10/10 01:56:39;;;;;;;19.90;10.85;;;;;;;6.13;84.86;101471.38;20739813;28;20057;-79
2021/10/10 02:06:40;;;;;;;20.60;11.18;;;;;;;6.07;84.86;101460.88;20742659;28;20097;-79
2021/10/10 02:16:42;;;;;;;18.63;10.45;;;;;;;6.00;84.72;101467.69;20815630;28;20092;-79
2021/10/10 02:26:43;;;;;;;22.70;12.02;;;;;;;6.02;84.86;101467.72;20799841;28;20052;-79
2021/10/10 02:36:46;;;;;;;26.13;12.02;;;;;;;5.95;84.98;101460.66;20799497;28;20108;-79
2021/10/10 02:46:48;;;;;;;23.48;11.80;;;;;;;5.85;85.45;101462.16;20850854;23;20599;-71
2021/10/10 02:56:50;;;;;;;22.02;11.15;;;;;;;5.54;86.80;101465.81;20806992;28;20421;-71
2021/10/10 03:06:51;;;;;;;29.60;12.98;;;;;;;5.45;88.40;101463.00;20806551;28;20049;-72
2021/10/10 03:16:53;;;;;;;21.38;12.40;;;;;;;5.32;88.59;101467.94;20805977;28;20096;-71
2021/10/10 03:26:55;;;;;;;24.85;13.13;;;;;;;5.20;88.71;101457.25;20805236;28;20530;-70
2021/10/10 03:36:56;;;;;;;27.98;14.35;;;;;;;5.22;89.28;101460.78;20805572;28;20412;-71
2021/10/10 03:46:57;;;;;;;28.42;15.65;;;;;;;5.20;90.01;101457.25;20818079;28;20080;-71
2021/10/10 03:56:59;;;;;;;26.05;14.55;;;;;;;5.21;89.51;101465.94;20820641;28;20053;-71
2021/10/10 04:07:01;;;;;;;30.67;16.30;;;;;;;5.34;89.16;101461.06;20818869;28;20091;-71
2021/10/10 04:17:03;;;;;;;30.85;16.52;;;;;;;5.29;89.67;101452.28;20819519;28;20107;-71
2021/10/10 04:27:05;;;;;;;29.80;15.88;;;;;;;5.18;89.28;101464.16;20820510;28;20444;-71
2021/10/10 04:37:06;;;;;;;32.45;15.90;;;;;;;5.01;90.11;101474.13;20822561;28;20053;-71
2021/10/10 04:47:08;;;;;;;32.30;15.65;;;;;;;5.00;90.29;101468.91;20816298;28;20053;-71
2021/10/10 04:57:09;;;;;;;35.65;15.93;;;;;;;5.04;88.91;101466.41;20900374;23;20056;-69
2021/10/10 05:07:11;;;;;;;24.65;14.82;;;;;;;4.98;89.42;101465.38;20813879;28;20111;-68
2021/10/10 05:17:13;;;;;;;27.77;16.05;;;;;;;4.90;90.10;101475.59;20813762;28;20053;-68
2021/10/10 05:27:14;;;;;;;32.20;15.63;;;;;;;4.78;90.04;101483.94;20811498;28;20497;-68
2021/10/10 05:37:16;;;;;;;32.55;16.90;;;;;;;4.72;90.77;101491.56;20811973;28;20049;-68
2021/10/10 05:47:17;;;;;;;31.88;17.77;;;;;;;4.81;90.97;101501.31;20811659;28;20445;-68
2021/10/10 05:57:24;;;;;;;36.47;19.55;;;;;;;4.91;90.79;101497.22;20810383;28;20050;-68
2021/10/10 06:07:26;;;;;;;34.95;18.40;;;;;;;4.96;91.13;101498.22;20810902;28;20504;-69
2021/10/10 06:17:28;;;;;;;33.53;18.40;;;;;;;4.97;91.59;101495.66;20810660;28;20621;-69
2021/10/10 06:27:30;;;;;;;34.25;18.63;;;;;;;5.03;90.72;101506.19;20807694;28;20049;-69
2021/10/10 06:37:31;;;;;;;32.33;18.85;;;;;;;5.18;91.17;101495.31;20807267;28;20080;-68
2021/10/10 06:47:33;;;;;;;39.15;21.02;;;;;;;5.46;91.05;101491.63;20806025;28;20453;-67
2021/10/10 06:57:34;;;;;;;35.10;19.23;;;;;;;5.84;89.27;101495.03;20806713;28;20053;-67
2021/10/10 07:07:36;;;;;;;32.72;20.23;;;;;;;6.27;88.05;101501.16;20773518;28;20399;-68
2021/10/10 07:17:38;;;;;;;35.53;17.88;;;;;;;6.50;87.56;101503.31;20785385;28;20103;-66
2021/10/10 07:27:42;;;;;;;24.90;14.65;;;;;;;6.80;84.61;101502.97;20813439;28;20092;-66
2021/10/10 07:37:44;;;;;;;22.37;12.20;;;;;;;7.06;79.45;101496.50;20796075;28;20058;-66
2021/10/10 07:47:50;;;;;;;22.85;12.75;;;;;;;7.24;78.93;101502.88;20730940;28;20072;-68
2021/10/10 07:57:54;;;;;;;22.08;11.35;;;;;;;7.25;78.63;101502.88;20729717;28;20495;-67
2021/10/10 08:07:56;;;;;;;24.50;12.05;;;;;;;7.44;78.55;101498.81;20729348;28;20056;-68
2021/10/10 08:17:58;;;;;;;20.27;11.48;;;;;;;7.75;77.38;101507.06;20795759;28;20391;-67
2021/10/10 08:27:59;;;;;;;20.27;11.00;;;;;;;8.01;76.19;101512.63;20809109;28;20516;-67
2021/10/10 08:38:01;;;;;;;21.77;11.95;;;;;;;8.23;75.65;101522.44;20809160;28;20053;-67
2021/10/10 08:48:04;;;;;;;18.30;11.45;;;;;;;8.36;75.54;101519.16;20807469;28;20060;-67
2021/10/10 08:58:08;;;;;;;23.55;11.27;;;;;;;8.89;73.92;101512.75;20807568;28;20107;-67
2021/10/10 09:08:10;;;;;;;20.33;11.75;;;;;;;9.12;73.58;101508.59;20806321;28;20050;-67
2021/10/10 09:18:12;;;;;;;20.45;11.73;;;;;;;9.66;72.64;101508.94;20736065;28;20054;-67
2021/10/10 09:28:22;;;;;;;20.63;11.13;;;;;;;9.83;71.37;101507.31;20722534;28;20490;-68
2021/10/10 09:38:26;;;;;;;22.20;11.60;;;;;;;10.32;70.94;101502.31;20721904;28;20431;-68
2021/10/10 09:48:33;;;;;;;27.33;12.63;;;;;;;10.42;68.40;101493.59;20719810;28;20050;-68
2021/10/10 09:58:43;;;;;;;19.02;10.80;;;;;;;10.89;68.11;101500.66;20721235;28;20053;-67
2021/10/10 10:08:44;;;;;;;21.20;12.05;;;;;;;10.83;66.07;101491.91;20720485;28;20045;-67
2021/10/10 10:18:47;;;;;;;17.63;10.70;;;;;;;11.18;67.13;101479.69;20793064;28;20670;-68
2021/10/10 10:28:49;;;;;;;23.30;11.02;;;;;;;11.39;65.93;101476.16;20800325;28;20045;-67
2021/10/10 10:38:51;;;;;;;22.20;10.68;;;;;;;11.68;65.91;101489.19;20800405;28;20057;-68
2021/10/10 10:48:53;;;;;;;22.38;10.75;;;;;;;11.62;64.30;101494.47;20799379;28;20176;-68
2021/10/10 10:58:58;;;;;;;20.00;10.45;;;;;;;12.15;63.66;101484.69;20728115;23;20567;-72
2021/10/10 11:09:06;;;;;;;16.60;9.60;;;;;;;12.43;61.40;101475.78;20637046;28;20667;-71
2021/10/10 11:19:10;;;;;;;18.17;10.65;;;;;;;12.65;61.04;101449.34;20711934;28;20442;-71
2021/10/10 11:29:17;;;;;;;19.40;10.23;;;;;;;12.97;60.21;101456.97;20717093;28;20038;-71
2021/10/10 11:39:26;;;;;;;21.10;11.23;;;;;;;12.99;58.54;101440.31;20716483;28;20053;-71
2021/10/10 11:49:39;;;;;;;26.92;12.55;;;;;;;13.27;58.78;101432.19;20717753;28;20053;-71
2021/10/10 11:59:51;;;;;;;21.67;11.63;;;;;;;13.38;58.31;101416.31;20719393;28;20049;-71
2021/10/10 12:09:57;;;;;;;19.52;10.23;;;;;;;13.25;58.90;101410.31;20729431;28;20072;-71
2021/10/10 12:20:02;;;;;;;19.50;9.05;;;;;;;13.69;54.92;101411.53;20648564;28;20062;-70
2021/10/10 12:30:04;;;;;;;19.02;10.13;;;;;;;13.67;56.53;101408.94;20647298;28;20057;-71
2021/10/10 12:40:06;;;;;;;18.17;9.88;;;;;;;13.77;55.07;101415.84;20647768;28;20109;-69
2021/10/10 12:50:10;;;;;;;18.70;10.25;;;;;;;13.93;54.47;101413.00;20646601;28;20051;-70
2021/10/10 13:00:16;;;;;;;14.65;9.32;;;;;;;14.01;54.99;101416.41;20645185;28;20133;-69
2021/10/10 13:10:18;;;;;;;17.70;9.32;;;;;;;13.84;54.23;101388.53;20648522;28;20049;-69
2021/10/10 13:20:19;;;;;;;16.90;9.32;;;;;;;13.94;52.98;101386.66;20722589;28;20042;-68
2021/10/10 13:30:21;;;;;;;16.55;10.07;;;;;;;13.98;54.47;101375.16;20723537;28;20136;-68
2021/10/10 13:40:23;;;;;;;31.27;18.55;;;;;;;14.07;56.34;101348.72;20721911;28;20053;-69
